Airport ICAO


20:17 UTC

24°C

Broken clouds


An affordable passengers' Moving Map for your aircraft. Made for the iPad and the iPhone
More information here

LFLL Saint Exupery


Lyon FRANCE   VFR


METAR LFLL 162000Z 32012KT 9999 FEW066TCU BKN260 24/13 Q1013 NOSIG 0h17min

TAF AMD LFLL 161730Z 1618/1724 35010KT CAVOK TEMPO 1618/1622 FEW060CB 2h47min





NOTAMS

OPEN